sensor_id;sensor_type;location;lat;lon;timestamp;temperature;humidity
22781;DHT22;11557;50.884;4.322;2023-12-29T00:00:39;11.40;99.90
22781;DHT22;11557;50.884;4.322;2023-12-29T00:03:05;11.40;99.90
22781;DHT22;11557;50.884;4.322;2023-12-29T00:05:31;11.40;99.90
22781;DHT22;11557;50.884;4.322;2023-12-29T00:07:56;11.30;99.90
22781;DHT22;11557;50.884;4.322;2023-12-29T00:10:22;11.30;99.90
22781;DHT22;11557;50.884;4.322;2023-12-29T00:12:47;11.30;99.90
22781;DHT22;11557;50.884;4.322;2023-12-29T00:15:17;11.30;99.90
22781;DHT22;11557;50.884;4.322;2023-12-29T00:17:43;11.30;99.90
22781;DHT22;11557;50.884;4.322;2023-12-29T00:20:09;11.30;99.90
22781;DHT22;11557;50.884;4.322;2023-12-29T00:22:35;11.30;99.90
22781;DHT22;11557;50.884;4.322;2023-12-29T00:25:01;11.30;99.90
22781;DHT22;11557;50.884;4.322;2023-12-29T00:27:26;11.20;99.90
22781;DHT22;11557;50.884;4.322;2023-12-29T00:29:52;11.10;99.90
22781;DHT22;11557;50.884;4.322;2023-12-29T00:32:17;11.20;99.90
22781;DHT22;11557;50.884;4.322;2023-12-29T00:34:43;11.20;99.90
22781;DHT22;11557;50.884;4.322;2023-12-29T00:37:09;11.20;99.90
22781;DHT22;11557;50.884;4.322;2023-12-29T00:39:34;11.10;99.90
22781;DHT22;11557;50.884;4.322;2023-12-29T00:42:05;11.20;99.90
22781;DHT22;11557;50.884;4.322;2023-12-29T00:44:31;11.30;99.90
22781;DHT22;11557;50.884;4.322;2023-12-29T00:46:57;11.30;99.90
22781;DHT22;11557;50.884;4.322;2023-12-29T00:49:22;11.30;99.90
22781;DHT22;11557;50.884;4.322;2023-12-29T00:51:48;11.30;99.90
22781;DHT22;11557;50.884;4.322;2023-12-29T00:54:14;11.30;99.90
22781;DHT22;11557;50.884;4.322;2023-12-29T00:56:39;11.20;99.90
22781;DHT22;11557;50.884;4.322;2023-12-29T00:59:05;11.30;99.90
22781;DHT22;11557;50.884;4.322;2023-12-29T01:01:35;11.30;99.90
22781;DHT22;11557;50.884;4.322;2023-12-29T01:04:01;11.30;99.90
22781;DHT22;11557;50.884;4.322;2023-12-29T01:06:27;11.30;99.90
22781;DHT22;11557;50.884;4.322;2023-12-29T01:08:52;11.40;99.90
22781;DHT22;11557;50.884;4.322;2023-12-29T01:11:18;11.40;99.90
22781;DHT22;11557;50.884;4.322;2023-12-29T01:13:44;11.40;99.90
22781;DHT22;11557;50.884;4.322;2023-12-29T01:16:09;11.40;99.90
22781;DHT22;11557;50.884;4.322;2023-12-29T01:18:35;11.30;99.90
22781;DHT22;11557;50.884;4.322;2023-12-29T01:21:00;11.30;99.90
22781;DHT22;11557;50.884;4.322;2023-12-29T01:23:26;11.30;99.90
22781;DHT22;11557;50.884;4.322;2023-12-29T01:25:52;11.30;99.90
22781;DHT22;11557;50.884;4.322;2023-12-29T01:28:17;11.30;99.90
22781;DHT22;11557;50.884;4.322;2023-12-29T01:30:43;11.30;99.90
22781;DHT22;11557;50.884;4.322;2023-12-29T01:33:08;11.30;99.90
22781;DHT22;11557;50.884;4.322;2023-12-29T01:35:34;11.30;99.90
22781;DHT22;11557;50.884;4.322;2023-12-29T01:38:01;11.20;99.90
22781;DHT22;11557;50.884;4.322;2023-12-29T01:40:27;11.20;99.90
22781;DHT22;11557;50.884;4.322;2023-12-29T01:42:53;11.30;99.90
22781;DHT22;11557;50.884;4.322;2023-12-29T01:45:23;11.30;99.90
22781;DHT22;11557;50.884;4.322;2023-12-29T01:47:49;11.40;99.90
22781;DHT22;11557;50.884;4.322;2023-12-29T01:50:19;11.40;99.90
22781;DHT22;11557;50.884;4.322;2023-12-29T01:52:46;11.30;99.90
22781;DHT22;11557;50.884;4.322;2023-12-29T01:55:17;11.80;99.90
22781;DHT22;11557;50.884;4.322;2023-12-29T01:57:44;11.30;99.90
22781;DHT22;11557;50.884;4.322;2023-12-29T02:00:11;11.30;99.90
22781;DHT22;11557;50.884;4.322;2023-12-29T02:02:37;11.40;99.90
22781;DHT22;11557;50.884;4.322;2023-12-29T02:05:03;11.40;99.90
22781;DHT22;11557;50.884;4.322;2023-12-29T02:07:29;11.30;99.90
22781;DHT22;11557;50.884;4.322;2023-12-29T02:09:58;11.30;99.90
22781;DHT22;11557;50.884;4.322;2023-12-29T02:12:24;11.30;99.90
22781;DHT22;11557;50.884;4.322;2023-12-29T02:14:50;11.30;99.90
22781;DHT22;11557;50.884;4.322;2023-12-29T02:17:29;11.40;99.90
22781;DHT22;11557;50.884;4.322;2023-12-29T02:19:57;11.40;99.90
22781;DHT22;11557;50.884;4.322;2023-12-29T02:22:23;11.30;99.90
22781;DHT22;11557;50.884;4.322;2023-12-29T02:24:49;11.40;99.90
22781;DHT22;11557;50.884;4.322;2023-12-29T02:32:42;11.30;99.90
22781;DHT22;11557;50.884;4.322;2023-12-29T02:35:16;11.30;99.90
22781;DHT22;11557;50.884;4.322;2023-12-29T02:37:42;11.30;99.90
22781;DHT22;11557;50.884;4.322;2023-12-29T02:40:08;11.30;99.90
22781;DHT22;11557;50.884;4.322;2023-12-29T02:42:34;11.30;99.90
22781;DHT22;11557;50.884;4.322;2023-12-29T02:45:00;11.30;99.90
22781;DHT22;11557;50.884;4.322;2023-12-29T02:47:26;11.20;99.90
22781;DHT22;11557;50.884;4.322;2023-12-29T02:49:52;11.20;99.90
22781;DHT22;11557;50.884;4.322;2023-12-29T02:52:18;11.30;99.90
22781;DHT22;11557;50.884;4.322;2023-12-29T02:54:44;11.30;99.90
22781;DHT22;11557;50.884;4.322;2023-12-29T02:57:09;11.20;99.90
22781;DHT22;11557;50.884;4.322;2023-12-29T02:59:35;11.20;99.90
22781;DHT22;11557;50.884;4.322;2023-12-29T03:02:03;11.20;99.90
22781;DHT22;11557;50.884;4.322;2023-12-29T03:04:29;11.10;99.90
22781;DHT22;11557;50.884;4.322;2023-12-29T03:06:55;11.10;99.90
22781;DHT22;11557;50.884;4.322;2023-12-29T03:09:20;11.10;99.90
22781;DHT22;11557;50.884;4.322;2023-12-29T03:11:46;11.10;99.90
22781;DHT22;11557;50.884;4.322;2023-12-29T03:14:12;11.10;99.90
22781;DHT22;11557;50.884;4.322;2023-12-29T03:16:39;11.10;99.90
22781;DHT22;11557;50.884;4.322;2023-12-29T03:19:05;11.20;99.90
22781;DHT22;11557;50.884;4.322;2023-12-29T03:21:31;11.20;99.90
22781;DHT22;11557;50.884;4.322;2023-12-29T03:23:56;11.20;99.90
22781;DHT22;11557;50.884;4.322;2023-12-29T03:26:22;11.20;99.90
22781;DHT22;11557;50.884;4.322;2023-12-29T03:28:48;11.20;99.90
22781;DHT22;11557;50.884;4.322;2023-12-29T03:31:13;11.10;99.90
22781;DHT22;11557;50.884;4.322;2023-12-29T03:33:39;11.10;99.90
22781;DHT22;11557;50.884;4.322;2023-12-29T03:36:05;11.10;99.90
22781;DHT22;11557;50.884;4.322;2023-12-29T03:38:32;11.10;99.90
22781;DHT22;11557;50.884;4.322;2023-12-29T03:40:58;11.10;99.90
22781;DHT22;11557;50.884;4.322;2023-12-29T03:43:24;11.00;99.90
22781;DHT22;11557;50.884;4.322;2023-12-29T03:45:50;11.10;99.90
22781;DHT22;11557;50.884;4.322;2023-12-29T03:48:15;11.10;99.90
22781;DHT22;11557;50.884;4.322;2023-12-29T03:50:41;11.10;99.90
22781;DHT22;11557;50.884;4.322;2023-12-29T03:53:06;11.10;99.90
22781;DHT22;11557;50.884;4.322;2023-12-29T03:55:32;11.10;99.90
22781;DHT22;11557;50.884;4.322;2023-12-29T03:57:58;11.10;99.90
22781;DHT22;11557;50.884;4.322;2023-12-29T04:00:24;11.10;99.90
22781;DHT22;11557;50.884;4.322;2023-12-29T04:02:49;11.00;99.90
22781;DHT22;11557;50.884;4.322;2023-12-29T04:05:15;11.00;99.90
22781;DHT22;11557;50.884;4.322;2023-12-29T04:07:40;11.00;99.90
22781;DHT22;11557;50.884;4.322;2023-12-29T04:10:06;10.90;99.90
22781;DHT22;11557;50.884;4.322;2023-12-29T04:12:33;10.90;99.90
22781;DHT22;11557;50.884;4.322;2023-12-29T04:14:59;10.80;99.90
22781;DHT22;11557;50.884;4.322;2023-12-29T04:17:25;10.80;99.90
22781;DHT22;11557;50.884;4.322;2023-12-29T04:19:50;10.90;99.90
22781;DHT22;11557;50.884;4.322;2023-12-29T04:22:16;10.90;99.90
22781;DHT22;11557;50.884;4.322;2023-12-29T04:24:41;10.90;99.90
22781;DHT22;11557;50.884;4.322;2023-12-29T04:27:07;11.00;99.90
22781;DHT22;11557;50.884;4.322;2023-12-29T04:29:33;11.00;99.90
22781;DHT22;11557;50.884;4.322;2023-12-29T04:31:58;11.00;99.90
22781;DHT22;11557;50.884;4.322;2023-12-29T04:34:24;10.90;99.90
22781;DHT22;11557;50.884;4.322;2023-12-29T04:36:49;11.00;99.90
22781;DHT22;11557;50.884;4.322;2023-12-29T04:39:15;11.00;99.90
22781;DHT22;11557;50.884;4.322;2023-12-29T04:41:41;11.00;99.90
22781;DHT22;11557;50.884;4.322;2023-12-29T04:44:06;11.00;99.90
22781;DHT22;11557;50.884;4.322;2023-12-29T04:46:32;11.00;99.90
22781;DHT22;11557;50.884;4.322;2023-12-29T04:48:57;11.00;99.90
22781;DHT22;11557;50.884;4.322;2023-12-29T04:51:23;11.00;99.90
22781;DHT22;11557;50.884;4.322;2023-12-29T04:53:49;10.80;99.90
22781;DHT22;11557;50.884;4.322;2023-12-29T04:56:14;10.80;99.90
22781;DHT22;11557;50.884;4.322;2023-12-29T04:58:40;10.80;99.90
22781;DHT22;11557;50.884;4.322;2023-12-29T05:01:05;10.80;99.90
22781;DHT22;11557;50.884;4.322;2023-12-29T05:03:31;10.90;99.90
22781;DHT22;11557;50.884;4.322;2023-12-29T05:05:56;10.90;99.90
22781;DHT22;11557;50.884;4.322;2023-12-29T05:08:22;11.00;99.90
22781;DHT22;11557;50.884;4.322;2023-12-29T05:10:48;11.00;99.90
22781;DHT22;11557;50.884;4.322;2023-12-29T05:13:13;10.90;99.90
22781;DHT22;11557;50.884;4.322;2023-12-29T05:15:39;10.90;99.90
22781;DHT22;11557;50.884;4.322;2023-12-29T05:18:05;11.00;99.90
22781;DHT22;11557;50.884;4.322;2023-12-29T05:20:31;11.00;99.90
22781;DHT22;11557;50.884;4.322;2023-12-29T05:22:56;10.90;99.90
22781;DHT22;11557;50.884;4.322;2023-12-29T05:25:22;10.90;99.90
22781;DHT22;11557;50.884;4.322;2023-12-29T05:27:50;11.00;99.90
22781;DHT22;11557;50.884;4.322;2023-12-29T05:30:16;11.00;99.90
22781;DHT22;11557;50.884;4.322;2023-12-29T05:32:42;11.00;99.90
22781;DHT22;11557;50.884;4.322;2023-12-29T05:35:08;10.90;99.90
22781;DHT22;11557;50.884;4.322;2023-12-29T05:37:34;10.90;99.90
22781;DHT22;11557;50.884;4.322;2023-12-29T05:40:00;10.80;99.90
22781;DHT22;11557;50.884;4.322;2023-12-29T05:42:25;10.80;99.90
22781;DHT22;11557;50.884;4.322;2023-12-29T05:44:52;10.80;99.90
22781;DHT22;11557;50.884;4.322;2023-12-29T05:47:18;10.80;99.90
22781;DHT22;11557;50.884;4.322;2023-12-29T05:49:44;10.80;99.90
22781;DHT22;11557;50.884;4.322;2023-12-29T05:52:10;10.80;99.90
22781;DHT22;11557;50.884;4.322;2023-12-29T05:54:36;10.80;99.90
22781;DHT22;11557;50.884;4.322;2023-12-29T05:57:02;10.80;99.90
22781;DHT22;11557;50.884;4.322;2023-12-29T05:59:27;10.70;99.90
22781;DHT22;11557;50.884;4.322;2023-12-29T06:01:53;10.70;99.90
22781;DHT22;11557;50.884;4.322;2023-12-29T06:04:19;10.70;99.90
22781;DHT22;11557;50.884;4.322;2023-12-29T06:06:45;10.50;99.90
22781;DHT22;11557;50.884;4.322;2023-12-29T06:09:11;10.50;99.90
22781;DHT22;11557;50.884;4.322;2023-12-29T06:11:37;10.30;99.90
22781;DHT22;11557;50.884;4.322;2023-12-29T06:14:03;10.30;99.90
22781;DHT22;11557;50.884;4.322;2023-12-29T06:16:29;10.20;99.90
22781;DHT22;11557;50.884;4.322;2023-12-29T06:18:55;10.20;99.90
22781;DHT22;11557;50.884;4.322;2023-12-29T06:21:21;10.20;99.90
22781;DHT22;11557;50.884;4.322;2023-12-29T06:23:47;10.20;99.90
22781;DHT22;11557;50.884;4.322;2023-12-29T06:26:17;10.30;99.90
22781;DHT22;11557;50.884;4.322;2023-12-29T06:28:44;10.20;99.90
22781;DHT22;11557;50.884;4.322;2023-12-29T06:31:09;10.40;99.90
22781;DHT22;11557;50.884;4.322;2023-12-29T06:33:35;10.30;99.90
22781;DHT22;11557;50.884;4.322;2023-12-29T06:36:01;10.30;99.90
22781;DHT22;11557;50.884;4.322;2023-12-29T06:38:27;10.20;99.90
22781;DHT22;11557;50.884;4.322;2023-12-29T06:40:52;10.20;99.90
22781;DHT22;11557;50.884;4.322;2023-12-29T06:43:18;10.20;99.90
22781;DHT22;11557;50.884;4.322;2023-12-29T06:45:43;10.20;99.90
22781;DHT22;11557;50.884;4.322;2023-12-29T06:48:09;10.20;99.90
22781;DHT22;11557;50.884;4.322;2023-12-29T06:50:35;10.30;99.90
22781;DHT22;11557;50.884;4.322;2023-12-29T06:53:02;10.30;99.90
22781;DHT22;11557;50.884;4.322;2023-12-29T06:55:28;10.40;99.90
22781;DHT22;11557;50.884;4.322;2023-12-29T06:57:54;10.40;99.90
22781;DHT22;11557;50.884;4.322;2023-12-29T07:00:19;10.40;99.90
22781;DHT22;11557;50.884;4.322;2023-12-29T07:02:45;10.40;99.90
22781;DHT22;11557;50.884;4.322;2023-12-29T07:05:11;10.50;99.90
22781;DHT22;11557;50.884;4.322;2023-12-29T07:07:37;10.50;99.90
22781;DHT22;11557;50.884;4.322;2023-12-29T07:10:03;10.50;99.90
22781;DHT22;11557;50.884;4.322;2023-12-29T07:12:29;10.50;99.90
22781;DHT22;11557;50.884;4.322;2023-12-29T07:14:55;10.50;99.90
22781;DHT22;11557;50.884;4.322;2023-12-29T07:17:20;10.50;99.90
22781;DHT22;11557;50.884;4.322;2023-12-29T07:19:46;10.40;99.90
22781;DHT22;11557;50.884;4.322;2023-12-29T07:22:12;10.40;99.90
22781;DHT22;11557;50.884;4.322;2023-12-29T07:24:37;10.40;99.90
22781;DHT22;11557;50.884;4.322;2023-12-29T07:27:04;10.50;99.90
22781;DHT22;11557;50.884;4.322;2023-12-29T07:29:30;10.40;99.90
22781;DHT22;11557;50.884;4.322;2023-12-29T07:31:55;10.40;99.90
22781;DHT22;11557;50.884;4.322;2023-12-29T07:34:21;10.40;99.90
22781;DHT22;11557;50.884;4.322;2023-12-29T07:36:47;10.30;99.90
22781;DHT22;11557;50.884;4.322;2023-12-29T07:39:13;10.30;99.90
22781;DHT22;11557;50.884;4.322;2023-12-29T07:41:40;10.20;99.90
22781;DHT22;11557;50.884;4.322;2023-12-29T07:44:06;10.20;99.90
22781;DHT22;11557;50.884;4.322;2023-12-29T07:46:32;10.20;99.90
22781;DHT22;11557;50.884;4.322;2023-12-29T07:48:58;10.20;99.90
22781;DHT22;11557;50.884;4.322;2023-12-29T07:51:23;10.20;99.90
22781;DHT22;11557;50.884;4.322;2023-12-29T07:53:49;10.30;99.90
22781;DHT22;11557;50.884;4.322;2023-12-29T07:56:14;10.30;99.90
22781;DHT22;11557;50.884;4.322;2023-12-29T07:58:40;10.40;99.90
22781;DHT22;11557;50.884;4.322;2023-12-29T08:01:05;10.30;99.90
22781;DHT22;11557;50.884;4.322;2023-12-29T08:03:31;10.40;99.90
22781;DHT22;11557;50.884;4.322;2023-12-29T08:05:57;10.40;99.90
22781;DHT22;11557;50.884;4.322;2023-12-29T08:08:22;10.40;99.90
22781;DHT22;11557;50.884;4.322;2023-12-29T08:10:48;10.40;99.90
22781;DHT22;11557;50.884;4.322;2023-12-29T08:13:13;10.40;99.90
22781;DHT22;11557;50.884;4.322;2023-12-29T08:15:39;10.40;99.90
22781;DHT22;11557;50.884;4.322;2023-12-29T08:18:05;10.40;99.90
22781;DHT22;11557;50.884;4.322;2023-12-29T08:20:31;10.50;99.90
22781;DHT22;11557;50.884;4.322;2023-12-29T08:22:56;10.60;99.90
22781;DHT22;11557;50.884;4.322;2023-12-29T08:25:22;10.60;99.90
22781;DHT22;11557;50.884;4.322;2023-12-29T08:27:48;10.50;99.90
22781;DHT22;11557;50.884;4.322;2023-12-29T08:30:14;10.50;99.90
22781;DHT22;11557;50.884;4.322;2023-12-29T08:32:40;10.50;99.90
22781;DHT22;11557;50.884;4.322;2023-12-29T08:35:05;10.50;99.90
22781;DHT22;11557;50.884;4.322;2023-12-29T08:37:32;10.50;99.90
22781;DHT22;11557;50.884;4.322;2023-12-29T08:39:59;10.50;99.90
22781;DHT22;11557;50.884;4.322;2023-12-29T08:42:25;10.50;99.90
22781;DHT22;11557;50.884;4.322;2023-12-29T08:44:50;10.40;99.90
22781;DHT22;11557;50.884;4.322;2023-12-29T08:47:16;10.50;99.90
22781;DHT22;11557;50.884;4.322;2023-12-29T08:49:42;10.50;99.90
22781;DHT22;11557;50.884;4.322;2023-12-29T08:52:07;10.50;99.90
22781;DHT22;11557;50.884;4.322;2023-12-29T08:54:34;10.40;99.90
22781;DHT22;11557;50.884;4.322;2023-12-29T08:57:02;10.50;99.90
22781;DHT22;11557;50.884;4.322;2023-12-29T08:59:28;10.50;99.90
22781;DHT22;11557;50.884;4.322;2023-12-29T09:01:53;10.50;99.90
22781;DHT22;11557;50.884;4.322;2023-12-29T09:04:19;10.50;99.90
22781;DHT22;11557;50.884;4.322;2023-12-29T09:06:45;10.40;99.90
22781;DHT22;11557;50.884;4.322;2023-12-29T09:09:10;10.50;99.90
22781;DHT22;11557;50.884;4.322;2023-12-29T09:11:39;10.60;99.90
22781;DHT22;11557;50.884;4.322;2023-12-29T09:14:04;10.70;99.90
22781;DHT22;11557;50.884;4.322;2023-12-29T09:16:30;10.80;99.90
22781;DHT22;11557;50.884;4.322;2023-12-29T09:18:56;10.80;99.90
22781;DHT22;11557;50.884;4.322;2023-12-29T09:21:22;10.80;99.90
22781;DHT22;11557;50.884;4.322;2023-12-29T09:23:48;10.80;99.90
22781;DHT22;11557;50.884;4.322;2023-12-29T09:26:17;10.70;99.90
22781;DHT22;11557;50.884;4.322;2023-12-29T09:28:42;10.80;99.90
22781;DHT22;11557;50.884;4.322;2023-12-29T09:31:12;10.80;99.90
22781;DHT22;11557;50.884;4.322;2023-12-29T09:33:37;10.80;99.90
22781;DHT22;11557;50.884;4.322;2023-12-29T09:36:04;10.70;99.90
22781;DHT22;11557;50.884;4.322;2023-12-29T09:38:30;10.80;99.90
22781;DHT22;11557;50.884;4.322;2023-12-29T09:41:01;10.80;99.90
22781;DHT22;11557;50.884;4.322;2023-12-29T09:43:31;10.80;99.90
22781;DHT22;11557;50.884;4.322;2023-12-29T09:45:58;10.90;99.90
22781;DHT22;11557;50.884;4.322;2023-12-29T09:48:26;10.90;99.90
22781;DHT22;11557;50.884;4.322;2023-12-29T09:50:52;11.00;99.90
22781;DHT22;11557;50.884;4.322;2023-12-29T09:53:20;10.90;99.90
22781;DHT22;11557;50.884;4.322;2023-12-29T09:55:51;10.90;99.90
22781;DHT22;11557;50.884;4.322;2023-12-29T09:58:19;10.90;99.90
22781;DHT22;11557;50.884;4.322;2023-12-29T10:00:47;10.90;99.90
22781;DHT22;11557;50.884;4.322;2023-12-29T10:03:14;10.90;99.90
22781;DHT22;11557;50.884;4.322;2023-12-29T10:05:40;10.90;99.90
22781;DHT22;11557;50.884;4.322;2023-12-29T10:08:07;11.00;99.90
22781;DHT22;11557;50.884;4.322;2023-12-29T10:10:35;11.00;99.90
22781;DHT22;11557;50.884;4.322;2023-12-29T10:13:04;11.00;99.90
22781;DHT22;11557;50.884;4.322;2023-12-29T10:21:01;11.00;99.90
22781;DHT22;11557;50.884;4.322;2023-12-29T10:23:50;11.00;99.90
22781;DHT22;11557;50.884;4.322;2023-12-29T10:26:17;11.00;99.90
22781;DHT22;11557;50.884;4.322;2023-12-29T10:28:46;11.10;99.90
22781;DHT22;11557;50.884;4.322;2023-12-29T10:31:15;11.30;99.90
22781;DHT22;11557;50.884;4.322;2023-12-29T10:33:41;11.30;99.90
22781;DHT22;11557;50.884;4.322;2023-12-29T10:36:07;11.40;99.90
22781;DHT22;11557;50.884;4.322;2023-12-29T10:38:34;11.50;99.90
22781;DHT22;11557;50.884;4.322;2023-12-29T10:41:26;11.40;99.90
22781;DHT22;11557;50.884;4.322;2023-12-29T10:43:52;11.30;99.90
22781;DHT22;11557;50.884;4.322;2023-12-29T10:46:20;11.30;99.90
22781;DHT22;11557;50.884;4.322;2023-12-29T10:48:46;11.30;99.90
22781;DHT22;11557;50.884;4.322;2023-12-29T10:51:11;11.20;99.90
22781;DHT22;11557;50.884;4.322;2023-12-29T10:53:37;11.20;99.90
22781;DHT22;11557;50.884;4.322;2023-12-29T10:56:03;11.20;99.90
22781;DHT22;11557;50.884;4.322;2023-12-29T10:58:29;11.20;99.90
22781;DHT22;11557;50.884;4.322;2023-12-29T11:00:57;11.10;99.90
22781;DHT22;11557;50.884;4.322;2023-12-29T11:03:23;11.10;99.90
22781;DHT22;11557;50.884;4.322;2023-12-29T11:05:50;11.10;99.90
22781;DHT22;11557;50.884;4.322;2023-12-29T11:08:18;11.10;99.90
22781;DHT22;11557;50.884;4.322;2023-12-29T11:10:44;11.10;99.90
22781;DHT22;11557;50.884;4.322;2023-12-29T11:13:11;11.20;99.90
22781;DHT22;11557;50.884;4.322;2023-12-29T11:15:44;11.20;99.90
22781;DHT22;11557;50.884;4.322;2023-12-29T11:18:15;11.30;99.90
22781;DHT22;11557;50.884;4.322;2023-12-29T11:20:42;11.40;99.90
22781;DHT22;11557;50.884;4.322;2023-12-29T11:23:09;11.40;99.90
22781;DHT22;11557;50.884;4.322;2023-12-29T11:25:35;11.50;99.90
22781;DHT22;11557;50.884;4.322;2023-12-29T11:28:01;11.50;99.90
22781;DHT22;11557;50.884;4.322;2023-12-29T11:30:27;11.60;99.90
22781;DHT22;11557;50.884;4.322;2023-12-29T11:32:59;11.50;99.90
22781;DHT22;11557;50.884;4.322;2023-12-29T11:35:34;11.50;99.90
22781;DHT22;11557;50.884;4.322;2023-12-29T11:38:11;11.50;99.90
22781;DHT22;11557;50.884;4.322;2023-12-29T11:40:44;11.50;99.90
22781;DHT22;11557;50.884;4.322;2023-12-29T11:43:17;11.50;99.90
22781;DHT22;11557;50.884;4.322;2023-12-29T11:45:43;11.50;99.90
22781;DHT22;11557;50.884;4.322;2023-12-29T11:48:10;11.50;99.90
22781;DHT22;11557;50.884;4.322;2023-12-29T11:50:38;11.50;99.90
22781;DHT22;11557;50.884;4.322;2023-12-29T11:53:05;11.50;99.90
22781;DHT22;11557;50.884;4.322;2023-12-29T11:55:39;11.50;99.90
22781;DHT22;11557;50.884;4.322;2023-12-29T11:58:24;11.40;99.90
22781;DHT22;11557;50.884;4.322;2023-12-29T12:00:51;11.30;99.90
22781;DHT22;11557;50.884;4.322;2023-12-29T12:03:19;11.20;99.90
22781;DHT22;11557;50.884;4.322;2023-12-29T12:05:49;11.20;99.90
22781;DHT22;11557;50.884;4.322;2023-12-29T12:10:55;11.20;99.90
22781;DHT22;11557;50.884;4.322;2023-12-29T12:16:08;11.10;99.90
22781;DHT22;11557;50.884;4.322;2023-12-29T12:18:34;11.10;99.90
22781;DHT22;11557;50.884;4.322;2023-12-29T12:21:01;12.50;99.90
22781;DHT22;11557;50.884;4.322;2023-12-29T12:23:33;11.20;99.90
22781;DHT22;11557;50.884;4.322;2023-12-29T12:26:01;11.10;99.90
22781;DHT22;11557;50.884;4.322;2023-12-29T12:28:27;10.90;99.90
22781;DHT22;11557;50.884;4.322;2023-12-29T12:31:04;10.80;99.90
22781;DHT22;11557;50.884;4.322;2023-12-29T12:33:31;10.70;99.90
22781;DHT22;11557;50.884;4.322;2023-12-29T12:36:00;10.60;99.90
22781;DHT22;11557;50.884;4.322;2023-12-29T12:38:26;10.50;99.90
22781;DHT22;11557;50.884;4.322;2023-12-29T12:40:52;10.40;99.90
22781;DHT22;11557;50.884;4.322;2023-12-29T12:43:18;10.30;99.90
22781;DHT22;11557;50.884;4.322;2023-12-29T12:45:53;10.30;99.90
22781;DHT22;11557;50.884;4.322;2023-12-29T12:48:23;10.30;99.90
22781;DHT22;11557;50.884;4.322;2023-12-29T12:50:49;10.40;99.90
22781;DHT22;11557;50.884;4.322;2023-12-29T12:53:16;10.40;99.90
22781;DHT22;11557;50.884;4.322;2023-12-29T12:55:51;10.50;99.90
22781;DHT22;11557;50.884;4.322;2023-12-29T12:58:18;10.60;99.90
22781;DHT22;11557;50.884;4.322;2023-12-29T13:00:46;10.70;99.90
22781;DHT22;11557;50.884;4.322;2023-12-29T13:03:12;10.80;99.90
22781;DHT22;11557;50.884;4.322;2023-12-29T13:05:38;10.90;99.90
22781;DHT22;11557;50.884;4.322;2023-12-29T13:08:05;11.00;99.90
22781;DHT22;11557;50.884;4.322;2023-12-29T13:10:31;11.10;99.90
22781;DHT22;11557;50.884;4.322;2023-12-29T13:12:57;11.00;99.90
22781;DHT22;11557;50.884;4.322;2023-12-29T13:15:23;11.10;99.90
22781;DHT22;11557;50.884;4.322;2023-12-29T13:17:55;11.00;99.90
22781;DHT22;11557;50.884;4.322;2023-12-29T13:20:21;11.10;99.90
22781;DHT22;11557;50.884;4.322;2023-12-29T13:22:48;11.10;99.90
22781;DHT22;11557;50.884;4.322;2023-12-29T13:25:25;11.10;99.90
22781;DHT22;11557;50.884;4.322;2023-12-29T13:27:53;11.10;99.90
22781;DHT22;11557;50.884;4.322;2023-12-29T13:30:20;11.10;99.90
22781;DHT22;11557;50.884;4.322;2023-12-29T13:32:48;11.10;99.90
22781;DHT22;11557;50.884;4.322;2023-12-29T13:35:35;11.10;99.90
22781;DHT22;11557;50.884;4.322;2023-12-29T13:38:09;11.20;99.90
22781;DHT22;11557;50.884;4.322;2023-12-29T13:40:53;11.20;99.90
22781;DHT22;11557;50.884;4.322;2023-12-29T13:43:20;11.20;99.90
22781;DHT22;11557;50.884;4.322;2023-12-29T13:45:47;11.10;99.90
22781;DHT22;11557;50.884;4.322;2023-12-29T13:48:14;11.00;99.90
22781;DHT22;11557;50.884;4.322;2023-12-29T13:50:48;10.90;99.90
22781;DHT22;11557;50.884;4.322;2023-12-29T13:53:21;11.00;99.90
22781;DHT22;11557;50.884;4.322;2023-12-29T13:55:48;11.00;99.90
22781;DHT22;11557;50.884;4.322;2023-12-29T13:58:15;11.10;99.90
22781;DHT22;11557;50.884;4.322;2023-12-29T14:00:43;11.20;99.90
22781;DHT22;11557;50.884;4.322;2023-12-29T14:03:23;11.20;99.90
22781;DHT22;11557;50.884;4.322;2023-12-29T14:05:59;11.20;99.90
22781;DHT22;11557;50.884;4.322;2023-12-29T14:08:39;11.20;99.90
22781;DHT22;11557;50.884;4.322;2023-12-29T14:11:09;11.20;99.90
22781;DHT22;11557;50.884;4.322;2023-12-29T14:13:35;11.20;99.90
22781;DHT22;11557;50.884;4.322;2023-12-29T14:16:06;11.20;99.90
22781;DHT22;11557;50.884;4.322;2023-12-29T14:21:19;11.20;99.90
22781;DHT22;11557;50.884;4.322;2023-12-29T14:26:32;11.30;99.90
22781;DHT22;11557;50.884;4.322;2023-12-29T14:29:03;11.20;99.90
22781;DHT22;11557;50.884;4.322;2023-12-29T14:31:31;11.30;99.90
22781;DHT22;11557;50.884;4.322;2023-12-29T14:34:01;11.30;99.90
22781;DHT22;11557;50.884;4.322;2023-12-29T14:36:34;11.20;99.90
22781;DHT22;11557;50.884;4.322;2023-12-29T14:39:05;11.30;99.90
22781;DHT22;11557;50.884;4.322;2023-12-29T14:41:32;11.20;99.90
22781;DHT22;11557;50.884;4.322;2023-12-29T14:43:58;11.20;99.90
22781;DHT22;11557;50.884;4.322;2023-12-29T14:46:25;11.20;99.90
22781;DHT22;11557;50.884;4.322;2023-12-29T14:48:52;11.20;99.90
22781;DHT22;11557;50.884;4.322;2023-12-29T14:51:19;11.30;99.90
22781;DHT22;11557;50.884;4.322;2023-12-29T14:53:47;11.40;99.90
22781;DHT22;11557;50.884;4.322;2023-12-29T14:56:13;11.50;99.90
22781;DHT22;11557;50.884;4.322;2023-12-29T14:58:39;11.50;99.90
22781;DHT22;11557;50.884;4.322;2023-12-29T15:01:06;11.50;99.90
22781;DHT22;11557;50.884;4.322;2023-12-29T15:03:33;11.50;99.90
22781;DHT22;11557;50.884;4.322;2023-12-29T15:05:59;11.50;99.90
22781;DHT22;11557;50.884;4.322;2023-12-29T15:08:26;11.50;99.90
22781;DHT22;11557;50.884;4.322;2023-12-29T15:10:54;11.50;99.90
22781;DHT22;11557;50.884;4.322;2023-12-29T15:13:20;11.50;99.90
22781;DHT22;11557;50.884;4.322;2023-12-29T15:15:46;11.40;99.90
22781;DHT22;11557;50.884;4.322;2023-12-29T15:18:12;11.40;99.90
22781;DHT22;11557;50.884;4.322;2023-12-29T15:20:37;11.40;99.90
22781;DHT22;11557;50.884;4.322;2023-12-29T15:23:03;11.40;99.90
22781;DHT22;11557;50.884;4.322;2023-12-29T15:25:29;11.50;99.90
22781;DHT22;11557;50.884;4.322;2023-12-29T15:27:55;11.40;99.90
22781;DHT22;11557;50.884;4.322;2023-12-29T15:30:20;11.40;99.90
22781;DHT22;11557;50.884;4.322;2023-12-29T15:32:46;11.30;99.90
22781;DHT22;11557;50.884;4.322;2023-12-29T15:35:12;11.30;99.90
22781;DHT22;11557;50.884;4.322;2023-12-29T15:37:37;11.40;99.90
22781;DHT22;11557;50.884;4.322;2023-12-29T15:40:03;11.40;99.90
22781;DHT22;11557;50.884;4.322;2023-12-29T15:42:30;11.40;99.90
22781;DHT22;11557;50.884;4.322;2023-12-29T15:44:56;11.40;99.90
22781;DHT22;11557;50.884;4.322;2023-12-29T15:47:21;11.40;99.90
22781;DHT22;11557;50.884;4.322;2023-12-29T15:49:47;11.50;99.90